createdAt,value
2024-03-07T00:01:15.011Z,8.49
2024-03-07T00:03:43.170Z,8.50
2024-03-07T00:06:11.396Z,8.54
2024-03-07T00:08:39.775Z,8.33
2024-03-07T00:11:08.554Z,8.43
2024-03-07T00:13:37.085Z,8.46
2024-03-07T00:16:05.243Z,8.23
2024-03-07T00:18:33.544Z,8.27
2024-03-07T00:21:01.785Z,8.24
2024-03-07T00:23:30.057Z,8.06
2024-03-07T00:25:58.029Z,7.97
2024-03-07T00:28:30.480Z,7.98
2024-03-07T00:30:58.954Z,8.01
2024-03-07T00:33:33.888Z,8.02
2024-03-07T00:36:10.905Z,7.86
2024-03-07T00:38:41.417Z,7.81
2024-03-07T00:41:09.382Z,7.71
2024-03-07T00:43:37.532Z,7.71
2024-03-07T00:46:07.594Z,7.62
2024-03-07T00:48:36.908Z,7.59
2024-03-07T00:51:05.479Z,7.67
2024-03-07T00:53:33.621Z,7.49
2024-03-07T00:56:01.569Z,7.47
2024-03-07T00:58:29.827Z,7.39
2024-03-07T01:00:57.747Z,7.36
2024-03-07T01:03:25.824Z,7.43
2024-03-07T01:05:54.024Z,7.38
2024-03-07T01:08:22.382Z,7.30
2024-03-07T01:10:50.419Z,7.32
2024-03-07T01:13:23.441Z,7.23
2024-03-07T01:15:51.921Z,7.24
2024-03-07T01:18:20.319Z,7.20
2024-03-07T01:20:48.374Z,7.17
2024-03-07T01:23:16.535Z,7.10
2024-03-07T01:25:44.438Z,7.16
2024-03-07T01:28:15.036Z,7.04
2024-03-07T01:30:42.906Z,7.05
2024-03-07T01:33:11.107Z,6.97
2024-03-07T01:35:39.112Z,7.16
2024-03-07T01:38:07.936Z,7.09
2024-03-07T01:40:35.845Z,7.11
2024-03-07T01:43:04.808Z,7.28
2024-03-07T01:45:33.151Z,7.13
2024-03-07T01:48:01.515Z,7.03
2024-03-07T01:50:30.103Z,7.17
2024-03-07T01:52:58.414Z,7.16
2024-03-07T01:55:28.296Z,7.27
2024-03-07T01:58:01.489Z,7.16
2024-03-07T02:00:29.428Z,7.24
2024-03-07T02:02:57.921Z,7.26
2024-03-07T02:05:26.004Z,7.19
2024-03-07T02:07:54.265Z,7.21
2024-03-07T02:10:22.164Z,7.20
2024-03-07T02:12:50.460Z,7.05
2024-03-07T02:15:18.746Z,7.12
2024-03-07T02:17:47.385Z,7.05
2024-03-07T02:20:17.230Z,7.03
2024-03-07T02:22:45.185Z,7.02
2024-03-07T02:25:13.923Z,7.00
2024-03-07T02:27:42.266Z,7.09
2024-03-07T02:30:11.714Z,7.12
2024-03-07T02:32:40.316Z,6.99
2024-03-07T02:35:09.719Z,7.07
2024-03-07T02:37:37.749Z,7.09
2024-03-07T02:40:06.639Z,6.93
2024-03-07T02:42:37.273Z,6.86
2024-03-07T02:45:06.311Z,6.91
2024-03-07T02:47:34.486Z,7.06
2024-03-07T02:50:02.692Z,7.05
2024-03-07T02:52:30.784Z,7.04
2024-03-07T02:54:59.078Z,7.02
2024-03-07T02:57:27.512Z,7.03
2024-03-07T02:59:55.834Z,7.08
2024-03-07T03:02:24.298Z,7.02
2024-03-07T03:04:52.795Z,7.07
2024-03-07T03:07:20.649Z,7.08
2024-03-07T03:09:48.812Z,7.03
2024-03-07T03:12:17.547Z,7.05
2024-03-07T03:14:45.674Z,7.02
2024-03-07T03:17:14.829Z,7.07
2024-03-07T03:19:42.783Z,7.07
2024-03-07T03:22:11.709Z,7.15
2024-03-07T03:24:42.457Z,7.06
2024-03-07T03:27:10.470Z,7.06
2024-03-07T03:29:38.538Z,7.12
2024-03-07T03:32:06.409Z,7.07
2024-03-07T03:34:34.797Z,6.87
2024-03-07T03:37:02.732Z,6.95
2024-03-07T03:39:31.645Z,7.06
2024-03-07T03:42:02.063Z,6.99
2024-03-07T03:44:30.678Z,6.96
2024-03-07T03:46:58.557Z,7.05
2024-03-07T03:49:26.565Z,7.06
2024-03-07T03:51:54.627Z,7.13
2024-03-07T03:54:22.776Z,7.07
2024-03-07T03:56:50.766Z,7.08
2024-03-07T03:59:18.930Z,7.02
2024-03-07T04:01:47.134Z,6.98
2024-03-07T04:04:15.400Z,6.99
2024-03-07T04:06:43.520Z,6.98
2024-03-07T04:09:11.420Z,7.03
2024-03-07T04:11:39.742Z,7.01
2024-03-07T04:14:08.049Z,7.04
2024-03-07T04:16:36.204Z,7.05
2024-03-07T04:19:04.831Z,6.94
2024-03-07T04:21:33.244Z,6.96
2024-03-07T04:24:02.168Z,6.93
2024-03-07T04:26:30.329Z,6.91
2024-03-07T04:28:59.168Z,6.86
2024-03-07T04:31:27.601Z,6.66
2024-03-07T04:33:55.495Z,6.80
2024-03-07T04:36:24.683Z,6.82
2024-03-07T04:38:53.633Z,6.78
2024-03-07T04:41:22.037Z,6.73
2024-03-07T04:43:49.997Z,6.67
2024-03-07T04:46:19.014Z,6.70
2024-03-07T04:48:46.995Z,6.65
2024-03-07T04:51:15.516Z,6.64
2024-03-07T04:53:43.779Z,6.65
2024-03-07T04:56:12.725Z,6.68
2024-03-07T04:58:40.694Z,6.61
2024-03-07T05:01:08.886Z,6.53
2024-03-07T05:03:36.861Z,6.41
2024-03-07T05:06:05.041Z,5.40
2024-03-07T05:08:34.575Z,5.92
2024-03-07T05:11:02.709Z,6.21
2024-03-07T05:13:30.578Z,6.14
2024-03-07T05:15:58.845Z,6.30
2024-03-07T05:18:26.864Z,6.27
2024-03-07T05:20:56.118Z,6.18
2024-03-07T05:23:24.101Z,6.31
2024-03-07T05:25:52.171Z,6.24
2024-03-07T05:28:20.149Z,6.19
2024-03-07T05:30:49.178Z,6.21
2024-03-07T05:33:19.242Z,6.30
2024-03-07T05:35:47.654Z,6.25
2024-03-07T05:38:15.566Z,6.20
2024-03-07T05:40:46.969Z,6.08
2024-03-07T05:43:14.815Z,6.07
2024-03-07T05:45:43.477Z,6.17
2024-03-07T05:48:18.842Z,6.21
2024-03-07T05:50:47.887Z,6.14
2024-03-07T05:53:15.962Z,6.12
2024-03-07T05:55:44.065Z,6.23
2024-03-07T05:58:11.936Z,6.24
2024-03-07T06:00:41.334Z,6.16
2024-03-07T06:03:09.628Z,6.25
2024-03-07T06:05:37.786Z,6.23
2024-03-07T06:08:08.218Z,6.25
2024-03-07T06:10:36.593Z,6.19
2024-03-07T06:13:10.462Z,6.23
2024-03-07T06:15:40.190Z,6.33
2024-03-07T06:18:12.796Z,6.36
2024-03-07T06:20:42.432Z,6.31
2024-03-07T06:23:13.527Z,6.31
2024-03-07T06:25:48.544Z,6.22
2024-03-07T06:28:17.174Z,6.26
2024-03-07T06:30:48.272Z,6.31
2024-03-07T06:33:22.888Z,6.29
2024-03-07T06:35:52.753Z,6.28
2024-03-07T06:38:21.149Z,6.36
2024-03-07T06:40:50.084Z,6.32
2024-03-07T06:43:18.814Z,6.44
2024-03-07T06:45:47.687Z,6.45
2024-03-07T06:48:16.097Z,5.73
2024-03-07T06:50:45.845Z,6.39
2024-03-07T06:53:14.222Z,6.49
2024-03-07T06:55:42.400Z,6.60
2024-03-07T06:58:11.838Z,6.61
2024-03-07T07:00:41.347Z,6.59
2024-03-07T07:03:09.539Z,6.50
2024-03-07T07:05:37.582Z,6.38
2024-03-07T07:08:06.224Z,6.57
2024-03-07T07:10:34.355Z,6.61
2024-03-07T07:13:02.547Z,6.58
2024-03-07T07:15:30.440Z,6.83
2024-03-07T07:17:59.772Z,6.69
2024-03-07T07:20:28.588Z,6.79
2024-03-07T07:22:58.802Z,6.87
2024-03-07T07:25:28.636Z,6.90
2024-03-07T07:27:56.643Z,6.91
2024-03-07T07:30:25.460Z,6.89
2024-03-07T07:32:55.045Z,7.06
2024-03-07T07:35:23.921Z,7.21
2024-03-07T07:37:55.160Z,7.15
2024-03-07T07:40:24.716Z,7.11
2024-03-07T07:42:53.723Z,7.05
2024-03-07T07:45:24.466Z,7.27
2024-03-07T07:47:54.648Z,7.33
2024-03-07T07:50:26.611Z,7.45
2024-03-07T07:52:58.888Z,7.46
2024-03-07T07:55:28.620Z,7.34
2024-03-07T07:57:58.729Z,7.49
2024-03-07T08:00:30.608Z,7.51
2024-03-07T08:03:01.681Z,7.61
2024-03-07T08:05:32.853Z,7.73
2024-03-07T08:08:07.326Z,7.75
2024-03-07T08:10:36.966Z,7.43
2024-03-07T08:13:14.451Z,7.59
2024-03-07T08:15:43.471Z,7.63
2024-03-07T08:18:12.512Z,7.78
2024-03-07T08:20:42.674Z,7.74
2024-03-07T08:23:11.509Z,7.88
2024-03-07T08:25:42.040Z,7.88
2024-03-07T08:28:10.274Z,8.06
2024-03-07T08:30:38.477Z,8.10
2024-03-07T08:33:07.450Z,8.09
2024-03-07T08:35:36.413Z,8.10
2024-03-07T08:38:06.156Z,8.22
2024-03-07T08:40:35.698Z,8.28
2024-03-07T08:43:04.738Z,8.40
2024-03-07T08:45:36.507Z,8.34
2024-03-07T08:48:11.324Z,8.34
2024-03-07T08:50:40.453Z,8.34
2024-03-07T08:53:10.099Z,8.34
2024-03-07T08:55:38.742Z,8.20
2024-03-07T08:58:10.114Z,8.25
2024-03-07T09:00:40.193Z,8.56
2024-03-07T09:03:12.021Z,8.55
2024-03-07T09:05:42.419Z,8.62
2024-03-07T09:08:10.661Z,8.75
2024-03-07T09:10:43.376Z,8.64
2024-03-07T09:13:12.216Z,8.61
2024-03-07T09:15:40.520Z,8.72
2024-03-07T09:18:09.941Z,8.64
2024-03-07T09:20:39.370Z,8.65
2024-03-07T09:23:08.033Z,8.69
2024-03-07T09:25:36.251Z,8.96
2024-03-07T09:28:04.855Z,8.95
2024-03-07T09:30:33.292Z,8.95
2024-03-07T09:33:02.932Z,8.82
2024-03-07T09:35:31.316Z,8.66
2024-03-07T09:37:59.375Z,8.72
2024-03-07T09:40:28.505Z,8.65
2024-03-07T09:42:59.472Z,8.67
2024-03-07T09:45:33.081Z,8.50
2024-03-07T09:48:01.837Z,8.58
2024-03-07T09:50:31.736Z,8.55
2024-03-07T09:53:01.287Z,8.37
2024-03-07T09:55:29.838Z,8.52
2024-03-07T09:58:01.062Z,8.55
2024-03-07T10:00:31.821Z,8.70
2024-03-07T10:03:03.917Z,8.81
2024-03-07T10:05:33.939Z,8.91
2024-03-07T10:08:02.982Z,8.96
2024-03-07T10:10:32.359Z,8.95
2024-03-07T10:13:01.665Z,9.02
2024-03-07T10:15:30.889Z,9.18
2024-03-07T10:17:59.238Z,9.53
2024-03-07T10:20:29.018Z,9.57
2024-03-07T10:23:01.694Z,9.55
2024-03-07T10:25:30.642Z,9.51
2024-03-07T10:27:59.969Z,9.55
2024-03-07T10:30:29.394Z,9.52
2024-03-07T10:33:01.632Z,9.40
2024-03-07T10:35:32.892Z,9.24
2024-03-07T10:38:02.500Z,9.23
2024-03-07T10:40:31.945Z,9.26
2024-03-07T10:43:04.565Z,9.18
2024-03-07T10:45:36.366Z,9.23
2024-03-07T10:48:05.165Z,9.45
2024-03-07T10:50:44.577Z,9.38
2024-03-07T10:53:37.606Z,9.35
2024-03-07T10:56:35.351Z,9.25
2024-03-07T10:59:35.579Z,9.38
2024-03-07T11:02:28.346Z,9.36
2024-03-07T11:04:57.746Z,9.44
2024-03-07T11:07:26.281Z,9.37
2024-03-07T11:09:56.843Z,9.48
2024-03-07T11:12:25.845Z,9.36
2024-03-07T11:14:55.856Z,9.53
2024-03-07T11:17:25.367Z,9.72
2024-03-07T11:19:53.613Z,9.61
2024-03-07T11:22:33.127Z,9.47
2024-03-07T11:25:02.316Z,9.33
2024-03-07T11:27:31.398Z,9.23
2024-03-07T11:30:09.366Z,9.13
2024-03-07T11:32:39.582Z,9.01
2024-03-07T11:35:16.322Z,8.91
2024-03-07T11:37:47.552Z,8.69
2024-03-07T11:40:21.517Z,8.68
2024-03-07T11:42:50.416Z,8.67
2024-03-07T11:45:26.505Z,8.64
2024-03-07T11:48:08.463Z,8.62
2024-03-07T11:50:41.969Z,8.60
2024-03-07T11:53:10.779Z,8.77
2024-03-07T11:55:44.644Z,8.76
2024-03-07T11:58:17.861Z,8.64
2024-03-07T12:00:47.144Z,8.74
2024-03-07T12:03:18.587Z,8.77
2024-03-07T12:05:47.845Z,8.79
2024-03-07T12:08:16.833Z,8.79
2024-03-07T12:10:49.119Z,8.53
2024-03-07T12:13:20.917Z,8.60
2024-03-07T12:15:50.025Z,8.53
2024-03-07T12:18:21.850Z,8.46
2024-03-07T12:20:56.662Z,8.41
2024-03-07T12:23:27.394Z,8.35
2024-03-07T12:26:06.626Z,8.49
2024-03-07T12:28:36.035Z,8.40
2024-03-07T12:31:06.387Z,8.49
2024-03-07T12:33:40.837Z,8.51
2024-03-07T12:36:11.688Z,8.34
2024-03-07T12:38:42.806Z,8.07
2024-03-07T12:41:15.972Z,8.17
2024-03-07T12:43:47.679Z,8.43
2024-03-07T12:46:17.358Z,8.43
2024-03-07T12:48:46.752Z,8.53
2024-03-07T12:51:19.944Z,8.43
2024-03-07T12:53:49.983Z,8.40
2024-03-07T12:56:20.629Z,8.49
2024-03-07T12:58:51.068Z,8.58
2024-03-07T13:01:21.368Z,8.40
2024-03-07T13:03:49.889Z,8.52
2024-03-07T13:06:25.423Z,8.52
2024-03-07T13:08:53.482Z,9.12
2024-03-07T13:11:22.233Z,9.25
2024-03-07T13:13:50.476Z,9.21
2024-03-07T13:16:20.255Z,9.06
2024-03-07T13:18:48.342Z,8.87
2024-03-07T13:21:18.746Z,8.83
2024-03-07T13:23:47.442Z,8.70
2024-03-07T13:26:25.522Z,8.71
2024-03-07T13:28:55.274Z,8.51
2024-03-07T13:31:25.376Z,8.70
2024-03-07T13:33:53.558Z,8.63
2024-03-07T13:36:24.611Z,8.99
2024-03-07T13:38:57.333Z,9.10
2024-03-07T13:41:27.654Z,9.28
2024-03-07T13:43:55.785Z,9.49
2024-03-07T13:46:24.058Z,9.46
2024-03-07T13:48:52.979Z,9.39
2024-03-07T13:51:21.668Z,9.37
2024-03-07T13:53:51.834Z,9.03
2024-03-07T13:57:06.804Z,9.13
2024-03-07T13:59:58.050Z,9.24
2024-03-07T14:02:47.975Z,9.15
2024-03-07T14:05:24.130Z,8.95
2024-03-07T14:08:16.308Z,8.99
2024-03-07T14:11:06.260Z,8.95
2024-03-07T14:14:02.200Z,8.83
2024-03-07T14:16:52.035Z,8.68
2024-03-07T14:19:38.516Z,8.65
2024-03-07T14:22:44.113Z,8.33
2024-03-07T14:25:21.406Z,8.27
2024-03-07T14:28:08.498Z,8.30
2024-03-07T14:30:45.037Z,8.42
2024-03-07T14:33:14.558Z,8.60
2024-03-07T14:36:05.645Z,8.64
2024-03-07T14:38:55.619Z,8.57
2024-03-07T14:41:48.449Z,8.55
2024-03-07T14:44:18.876Z,8.73
2024-03-07T14:46:51.831Z,8.80
2024-03-07T14:49:20.606Z,8.67
2024-03-07T14:51:58.622Z,8.67
2024-03-07T14:54:29.399Z,8.65
2024-03-07T14:56:57.630Z,8.56
2024-03-07T14:59:27.421Z,8.41
2024-03-07T15:01:58.655Z,8.42
2024-03-07T15:04:33.881Z,8.65
2024-03-07T15:07:03.856Z,8.64
2024-03-07T15:09:35.499Z,8.68
2024-03-07T15:12:04.049Z,8.55
2024-03-07T15:14:38.245Z,8.35
2024-03-07T15:17:08.779Z,8.43
2024-03-07T15:19:36.773Z,8.20
2024-03-07T15:22:06.014Z,8.14
2024-03-07T15:24:36.879Z,8.10
2024-03-07T15:27:05.963Z,8.00
2024-03-07T15:29:34.187Z,7.99
2024-03-07T15:32:04.110Z,7.87
2024-03-07T15:34:38.752Z,7.88
2024-03-07T15:37:08.359Z,7.77
2024-03-07T15:39:40.177Z,7.75
2024-03-07T15:42:10.708Z,7.78
2024-03-07T15:44:41.185Z,7.68
2024-03-07T15:47:09.704Z,7.60
2024-03-07T15:49:39.682Z,7.45
2024-03-07T15:52:07.672Z,7.50
2024-03-07T15:54:35.762Z,7.45
2024-03-07T15:57:05.104Z,7.46
2024-03-07T15:59:36.089Z,7.34
2024-03-07T16:02:05.984Z,7.34
2024-03-07T16:04:35.213Z,7.33
2024-03-07T16:07:04.939Z,7.16
2024-03-07T16:09:33.292Z,7.25
2024-03-07T16:12:02.882Z,7.28
2024-03-07T16:14:31.270Z,7.05
2024-03-07T16:16:59.171Z,7.12
2024-03-07T16:19:27.230Z,7.05
2024-03-07T16:21:55.205Z,7.07
2024-03-07T16:24:23.284Z,7.09
2024-03-07T16:26:52.192Z,6.95
2024-03-07T16:29:20.496Z,7.06
2024-03-07T16:31:48.864Z,7.05
2024-03-07T16:34:17.936Z,6.87
2024-03-07T16:36:47.148Z,6.99
2024-03-07T16:39:15.260Z,6.92
2024-03-07T16:41:44.070Z,7.01
2024-03-07T16:44:12.468Z,6.93
2024-03-07T16:46:41.955Z,6.81
2024-03-07T16:49:10.086Z,6.89
2024-03-07T16:51:38.083Z,6.73
2024-03-07T16:54:06.956Z,6.77
2024-03-07T16:56:41.926Z,6.68
2024-03-07T16:59:11.662Z,6.57
2024-03-07T17:01:45.610Z,6.60
2024-03-07T17:04:14.123Z,6.56
2024-03-07T17:06:42.042Z,6.52
2024-03-07T17:09:12.492Z,6.44
2024-03-07T17:11:42.285Z,6.33
2024-03-07T17:14:11.362Z,6.43
2024-03-07T17:16:39.600Z,6.26
2024-03-07T17:19:14.945Z,6.35
2024-03-07T17:21:43.369Z,6.27
2024-03-07T17:24:11.649Z,6.17
2024-03-07T17:26:39.748Z,6.14
2024-03-07T17:29:07.827Z,6.23
2024-03-07T17:31:36.697Z,6.19
2024-03-07T17:34:04.790Z,6.21
2024-03-07T17:36:33.713Z,6.15
2024-03-07T17:39:03.008Z,6.16
2024-03-07T17:41:31.205Z,6.10
2024-03-07T17:43:59.967Z,6.15
2024-03-07T17:46:28.508Z,6.14
2024-03-07T17:48:57.496Z,6.04
2024-03-07T17:51:25.453Z,5.98
2024-03-07T17:53:56.515Z,5.96
2024-03-07T17:56:27.439Z,5.95
2024-03-07T17:58:57.878Z,5.95
2024-03-07T18:01:26.865Z,6.04
2024-03-07T18:03:56.454Z,6.06
2024-03-07T18:06:24.535Z,6.03
2024-03-07T18:08:59.810Z,6.08
2024-03-07T18:11:31.654Z,6.09
2024-03-07T18:14:00.073Z,6.17
2024-03-07T18:16:28.047Z,6.21
2024-03-07T18:18:57.847Z,6.21
2024-03-07T18:21:27.412Z,6.24
2024-03-07T18:23:55.725Z,6.21
2024-03-07T18:26:23.715Z,5.93
2024-03-07T18:28:53.501Z,6.10
2024-03-07T18:31:28.438Z,6.30
2024-03-07T18:33:56.952Z,6.26
2024-03-07T18:36:24.949Z,6.22
2024-03-07T18:38:53.413Z,6.21
2024-03-07T18:41:21.580Z,6.11
2024-03-07T18:43:49.737Z,6.24
2024-03-07T18:46:17.892Z,6.25
2024-03-07T18:48:46.271Z,6.17
2024-03-07T18:51:14.300Z,6.18
2024-03-07T18:53:42.486Z,6.07
2024-03-07T18:56:11.427Z,6.14
2024-03-07T18:58:39.986Z,5.98
2024-03-07T19:01:08.752Z,5.94
2024-03-07T19:03:36.980Z,6.03
2024-03-07T19:06:10.260Z,6.07
2024-03-07T19:08:39.071Z,5.93
2024-03-07T19:11:08.140Z,5.95
2024-03-07T19:13:37.312Z,5.90
2024-03-07T19:16:10.270Z,5.94
2024-03-07T19:18:38.545Z,5.86
2024-03-07T19:21:13.159Z,5.88
2024-03-07T19:23:46.511Z,6.03
2024-03-07T19:26:21.473Z,5.96
2024-03-07T19:28:49.610Z,6.09
2024-03-07T19:31:17.715Z,6.06
2024-03-07T19:33:46.052Z,6.04
2024-03-07T19:36:17.280Z,6.03
2024-03-07T19:38:47.576Z,6.09
2024-03-07T19:41:16.233Z,6.08
2024-03-07T19:43:44.466Z,6.09
2024-03-07T19:46:13.062Z,6.11
2024-03-07T19:48:41.411Z,6.15
2024-03-07T19:51:11.292Z,6.13
2024-03-07T19:53:40.383Z,6.12
2024-03-07T19:56:09.433Z,6.10
2024-03-07T19:58:39.010Z,6.21
2024-03-07T20:01:13.110Z,6.22
2024-03-07T20:03:42.321Z,6.22
2024-03-07T20:06:11.168Z,6.29
2024-03-07T20:08:39.433Z,6.32
2024-03-07T20:11:08.464Z,6.32
2024-03-07T20:13:41.600Z,6.26
2024-03-07T20:16:10.442Z,6.23
2024-03-07T20:18:42.694Z,6.37
2024-03-07T20:21:11.708Z,6.41
2024-03-07T20:23:42.103Z,6.25
2024-03-07T20:26:10.572Z,6.31
2024-03-07T20:28:38.631Z,6.34
2024-03-07T20:31:09.610Z,6.36
2024-03-07T20:33:38.606Z,6.41
2024-03-07T20:36:10.326Z,6.32
2024-03-07T20:38:39.224Z,6.37
2024-03-07T20:41:08.220Z,6.47
2024-03-07T20:43:37.083Z,6.50
2024-03-07T20:46:07.126Z,6.29
2024-03-07T20:48:36.582Z,6.34
2024-03-07T20:51:07.356Z,6.19
2024-03-07T20:53:35.894Z,6.25
2024-03-07T20:56:07.672Z,6.40
2024-03-07T20:58:36.626Z,6.40
2024-03-07T21:01:05.398Z,6.45
2024-03-07T21:03:33.879Z,6.42
2024-03-07T21:06:02.087Z,6.30
2024-03-07T21:08:30.243Z,6.37
2024-03-07T21:10:58.771Z,6.32
2024-03-07T21:13:28.283Z,6.47
2024-03-07T21:15:57.130Z,6.46
2024-03-07T21:18:25.264Z,6.37
2024-03-07T21:20:53.690Z,6.40
2024-03-07T21:23:24.879Z,6.45
2024-03-07T21:25:53.623Z,6.44
2024-03-07T21:28:22.290Z,6.44
2024-03-07T21:30:50.654Z,6.40
2024-03-07T21:33:18.654Z,6.39
2024-03-07T21:35:47.123Z,6.41
2024-03-07T21:38:15.395Z,6.38
2024-03-07T21:40:45.165Z,6.29
2024-03-07T21:43:13.137Z,6.28
2024-03-07T21:45:41.491Z,6.32
2024-03-07T21:48:09.608Z,6.27
2024-03-07T21:50:37.939Z,6.17
2024-03-07T21:53:05.932Z,6.34
2024-03-07T21:55:34.464Z,6.34
2024-03-07T21:58:03.322Z,6.26
2024-03-07T22:00:32.656Z,6.35
2024-03-07T22:03:02.549Z,6.48
2024-03-07T22:05:34.452Z,6.43
2024-03-07T22:08:05.119Z,6.43
2024-03-07T22:10:36.676Z,6.41
2024-03-07T22:13:06.867Z,6.29
2024-03-07T22:15:36.114Z,6.18
2024-03-07T22:18:05.681Z,6.34
2024-03-07T22:20:34.324Z,6.35
2024-03-07T22:23:03.898Z,6.23
2024-03-07T22:25:32.180Z,6.24
2024-03-07T22:28:00.560Z,6.26
2024-03-07T22:30:29.020Z,6.29
2024-03-07T22:32:57.257Z,6.29
2024-03-07T22:35:25.661Z,6.26
2024-03-07T22:37:54.201Z,6.22
2024-03-07T22:40:28.972Z,6.14
2024-03-07T22:42:57.947Z,6.14
2024-03-07T22:45:27.365Z,6.14
2024-03-07T22:47:55.773Z,6.09
2024-03-07T22:50:29.762Z,6.06
2024-03-07T22:53:01.292Z,6.12
2024-03-07T22:55:31.959Z,6.08
2024-03-07T22:58:00.250Z,6.07
2024-03-07T23:00:33.673Z,6.10
2024-03-07T23:03:05.794Z,6.05
2024-03-07T23:05:34.388Z,6.09
2024-03-07T23:08:02.394Z,6.08
2024-03-07T23:10:31.276Z,6.03
2024-03-07T23:13:02.820Z,6.01
2024-03-07T23:15:32.158Z,5.97
2024-03-07T23:18:00.956Z,6.00
2024-03-07T23:20:30.115Z,5.98
2024-03-07T23:23:00.249Z,6.03
2024-03-07T23:25:29.418Z,5.96
2024-03-07T23:27:58.233Z,5.97
2024-03-07T23:30:28.112Z,5.95
2024-03-07T23:32:58.815Z,5.89
2024-03-07T23:35:28.095Z,6.01
2024-03-07T23:37:56.229Z,5.92
2024-03-07T23:40:24.413Z,5.93
2024-03-07T23:42:54.054Z,5.84
2024-03-07T23:45:22.850Z,5.92
2024-03-07T23:47:51.649Z,5.88
2024-03-07T23:50:20.819Z,5.87
2024-03-07T23:52:48.957Z,5.81
2024-03-07T23:55:18.059Z,5.86
2024-03-07T23:57:47.623Z,5.89
